createdAt,value
2023-03-06T00:00:03.962Z,83.7
2023-03-06T00:01:01.733Z,83.6
2023-03-06T00:02:02.200Z,83.5
2023-03-06T00:03:01.735Z,83.6
2023-03-06T00:04:02.294Z,83.6
2023-03-06T00:05:01.643Z,83.5
2023-03-06T00:06:03.896Z,83.6
2023-03-06T00:07:01.635Z,83.7
2023-03-06T00:08:02.140Z,83.6
2023-03-06T00:09:01.608Z,83.6
2023-03-06T00:10:03.715Z,83.6
2023-03-06T00:11:01.485Z,83.6
2023-03-06T00:12:01.958Z,83.6
2023-03-06T00:13:01.509Z,83.6
2023-03-06T00:14:01.995Z,83.6
2023-03-06T00:15:01.403Z,83.7
2023-03-06T00:16:01.949Z,83.7
2023-03-06T00:17:01.438Z,83.6
2023-03-06T00:18:03.566Z,83.7
2023-03-06T00:19:03.006Z,83.6
2023-03-06T00:20:01.800Z,83.6
2023-03-06T00:21:03.962Z,83.5
2023-03-06T00:22:03.412Z,83.5
2023-03-06T00:23:03.877Z,83.5
2023-03-06T00:24:01.725Z,83.5
2023-03-06T00:25:03.884Z,83.5
2023-03-06T00:26:03.324Z,83.5
2023-03-06T00:27:02.134Z,83.4
2023-03-06T00:28:01.634Z,83.4
2023-03-06T00:29:02.144Z,83.3
2023-03-06T00:30:01.582Z,83.2
2023-03-06T00:31:03.721Z,83.2
2023-03-06T00:32:01.492Z,83.3
2023-03-06T00:33:01.957Z,83.3
2023-03-06T00:34:01.495Z,83.4
2023-03-06T00:35:02.019Z,83.5
2023-03-06T00:36:01.398Z,83.6
2023-03-06T00:37:01.868Z,83.6
2023-03-06T00:38:03.078Z,83.7
2023-03-06T00:39:03.555Z,83.7
2023-03-06T00:40:01.347Z,83.7
2023-03-06T00:41:01.801Z,83.8
2023-03-06T00:43:03.482Z,83.7
2023-03-06T00:44:02.270Z,83.7
2023-03-06T00:45:01.736Z,83.6
2023-03-06T00:46:02.264Z,83.5
2023-03-06T00:47:01.702Z,83.3
2023-03-06T00:48:02.197Z,83.4
2023-03-06T00:49:03.315Z,83.5
2023-03-06T00:50:02.113Z,83.4
2023-03-06T00:51:01.661Z,83.5
2023-03-06T00:52:02.109Z,83.4
2023-03-06T00:53:01.558Z,83.5
2023-03-06T00:54:02.038Z,83.5
2023-03-06T00:55:01.571Z,83.5
2023-03-06T00:56:02.061Z,83.5
2023-03-06T00:57:01.508Z,83.4
2023-03-06T00:58:01.945Z,83.4
2023-03-06T00:59:01.479Z,83.3
2023-03-06T01:00:01.959Z,83.3
2023-03-06T01:01:01.417Z,83.1
2023-03-06T01:02:01.944Z,83.2
2023-03-06T01:03:01.402Z,83.2
2023-03-06T01:04:01.865Z,83.3
2023-03-06T01:05:02.998Z,83.1
2023-03-06T01:06:01.797Z,83
2023-03-06T01:07:02.293Z,83
2023-03-06T01:08:01.789Z,82.9
2023-03-06T01:09:02.271Z,82.9
2023-03-06T01:10:01.717Z,83
2023-03-06T01:11:02.184Z,82.9
2023-03-06T01:12:01.767Z,82.9
2023-03-06T01:13:03.875Z,82.9
2023-03-06T01:14:03.313Z,82.8
2023-03-06T01:15:03.784Z,82.8
2023-03-06T01:16:02.643Z,82.8
2023-03-06T01:18:03.597Z,82.6
2023-03-06T01:19:02.279Z,82.7
2023-03-06T01:20:01.723Z,82.8
2023-03-06T01:21:02.210Z,82.9
2023-03-06T01:22:01.717Z,82.7
2023-03-06T01:23:02.201Z,82.9
2023-03-06T01:24:03.322Z,82.9
2023-03-06T01:25:02.120Z,82.9
2023-03-06T01:26:01.639Z,82.8
2023-03-06T01:27:02.120Z,82.7
2023-03-06T01:28:01.578Z,82.9
2023-03-06T01:29:02.074Z,82.9
2023-03-06T01:30:01.555Z,82.7
2023-03-06T01:31:02.050Z,82.7
2023-03-06T01:32:01.626Z,82.7
2023-03-06T01:33:01.982Z,82.6
2023-03-06T01:34:01.487Z,82.6
2023-03-06T01:35:01.970Z,82.4
2023-03-06T01:36:01.398Z,82.5
2023-03-06T01:37:03.555Z,82.5
2023-03-06T01:38:01.393Z,82.6
2023-03-06T01:39:01.886Z,82.5
2023-03-06T01:40:01.319Z,82.5
2023-03-06T01:41:01.818Z,82.5
2023-03-06T01:43:01.801Z,82.5
2023-03-06T01:44:02.275Z,82.7
2023-03-06T01:45:01.722Z,82.6
2023-03-06T01:46:03.921Z,82.6
2023-03-06T01:47:01.718Z,82.6
2023-03-06T01:48:03.874Z,82.5
2023-03-06T01:49:01.720Z,82.5
2023-03-06T01:50:03.888Z,82.5
2023-03-06T01:51:03.323Z,82.6
2023-03-06T01:52:02.167Z,82.5
2023-03-06T01:53:01.653Z,82.6
2023-03-06T01:54:03.796Z,82.3
2023-03-06T01:55:01.558Z,82.4
2023-03-06T01:56:02.037Z,82.3
2023-03-06T01:57:01.474Z,82.2
2023-03-06T01:58:02.030Z,82.3
2023-03-06T01:59:01.470Z,82.4
2023-03-06T02:00:01.965Z,82.4
2023-03-06T02:01:01.507Z,82.4
2023-03-06T02:02:02.054Z,82.4
2023-03-06T02:03:01.424Z,82.2
2023-03-06T02:04:01.967Z,82.2
2023-03-06T02:05:01.396Z,82.3
2023-03-06T02:06:01.892Z,82.3
2023-03-06T02:07:03.019Z,82.4
2023-03-06T02:08:01.801Z,82.4
2023-03-06T02:10:01.888Z,82.5
2023-03-06T02:11:02.295Z,82.4
2023-03-06T02:12:01.823Z,82.2
2023-03-06T02:13:02.282Z,82.1
2023-03-06T02:14:03.393Z,82.2
2023-03-06T02:15:02.206Z,82.3
2023-03-06T02:16:02.724Z,82.4
2023-03-06T02:17:01.528Z,82.4
2023-03-06T02:18:02.003Z,82.6
2023-03-06T02:19:01.408Z,82.5
2023-03-06T02:20:01.949Z,82.4
2023-03-06T02:21:01.400Z,82.5
2023-03-06T02:22:03.563Z,82.6
2023-03-06T02:23:03.044Z,82.6
2023-03-06T02:24:01.810Z,82.7
2023-03-06T02:25:03.969Z,82.8
2023-03-06T02:26:03.411Z,82.8
2023-03-06T02:27:03.883Z,82.8
2023-03-06T02:28:01.744Z,82.9
2023-03-06T02:29:02.228Z,82.9
2023-03-06T02:30:01.663Z,82.9
2023-03-06T02:31:03.910Z,83
2023-03-06T02:32:03.290Z,83.1
2023-03-06T02:33:02.134Z,83.2
2023-03-06T02:34:01.595Z,83.2
2023-03-06T02:35:03.736Z,83.2
2023-03-06T02:36:01.534Z,83.3
2023-03-06T02:37:01.996Z,83.4
2023-03-06T02:38:03.181Z,83.4
2023-03-06T02:39:01.997Z,83.4
2023-03-06T02:40:01.412Z,83.4
2023-03-06T02:41:01.941Z,83.4
2023-03-06T02:42:01.416Z,83.4
2023-03-06T02:43:01.885Z,83.3
2023-03-06T02:45:01.854Z,83.5
2023-03-06T02:46:02.387Z,83.5
2023-03-06T02:47:03.404Z,83.5
2023-03-06T02:48:02.211Z,83.6
2023-03-06T02:49:01.724Z,83.6
2023-03-06T02:50:02.213Z,83.7
2023-03-06T02:51:01.723Z,83.8
2023-03-06T02:52:02.197Z,83.7
2023-03-06T02:53:01.664Z,83.7
2023-03-06T02:54:03.791Z,83.7
2023-03-06T02:55:03.341Z,83.7
2023-03-06T02:56:02.113Z,83.7
2023-03-06T02:57:01.560Z,83.7
2023-03-06T02:58:02.068Z,83.8
2023-03-06T02:59:01.556Z,83.9
2023-03-06T03:00:03.658Z,83.9
2023-03-06T03:01:01.478Z,83.9
2023-03-06T03:02:01.960Z,83.9
2023-03-06T03:03:01.501Z,84
2023-03-06T03:04:03.628Z,84
2023-03-06T03:05:01.382Z,84
2023-03-06T03:06:03.556Z,84
2023-03-06T03:07:01.312Z,84
2023-03-06T03:08:01.826Z,84
2023-03-06T03:10:01.812Z,84.1
2023-03-06T03:11:02.271Z,84.2
2023-03-06T03:12:01.708Z,84.2
2023-03-06T03:13:02.207Z,84.2
2023-03-06T03:14:01.704Z,84.2
2023-03-06T03:15:03.133Z,84.2
2023-03-06T03:16:02.051Z,84.3
2023-03-06T03:17:01.323Z,84.3
2023-03-06T03:18:01.908Z,84.3
2023-03-06T03:19:01.303Z,84.3
2023-03-06T03:20:01.799Z,84.3
2023-03-06T03:21:02.282Z,84.3
2023-03-06T03:22:01.821Z,84.3
2023-03-06T03:23:03.975Z,84.3
2023-03-06T03:24:01.736Z,84.4
2023-03-06T03:25:02.196Z,84.5
2023-03-06T03:26:01.634Z,84.4
2023-03-06T03:27:03.795Z,84.5
2023-03-06T03:28:01.628Z,84.5
2023-03-06T03:29:02.144Z,84.5
2023-03-06T03:30:03.236Z,84.4
2023-03-06T03:31:02.203Z,84.4
2023-03-06T03:32:01.607Z,84.4
2023-03-06T03:33:02.033Z,84.4
2023-03-06T03:34:01.575Z,84.4
2023-03-06T03:35:02.032Z,84.4
2023-03-06T03:36:01.511Z,84.3
2023-03-06T03:37:01.957Z,84.2
2023-03-06T03:38:01.472Z,84.2
2023-03-06T03:39:01.979Z,84.3
2023-03-06T03:40:01.395Z,84.3
2023-03-06T03:41:01.871Z,84.4
2023-03-06T03:42:01.396Z,84.5
2023-03-06T03:43:03.551Z,84.5
2023-03-06T03:44:01.353Z,84.5
2023-03-06T03:45:01.792Z,84.5
2023-03-06T03:46:02.324Z,84.6
2023-03-06T03:47:01.796Z,84.6
2023-03-06T03:48:02.276Z,84.6
2023-03-06T03:49:03.421Z,84.6
2023-03-06T03:50:03.883Z,84.5
2023-03-06T03:51:01.715Z,84.6
2023-03-06T03:52:02.209Z,84.6
2023-03-06T03:53:03.319Z,84.7
2023-03-06T03:54:02.118Z,84.7
2023-03-06T03:55:01.656Z,84.8
2023-03-06T03:56:02.129Z,84.8
2023-03-06T03:57:03.224Z,84.8
2023-03-06T03:58:02.037Z,84.8
2023-03-06T03:59:01.564Z,84.9
2023-03-06T04:00:02.056Z,85
2023-03-06T04:01:01.478Z,85
2023-03-06T04:02:02.046Z,85.1
2023-03-06T04:03:01.478Z,85.1
2023-03-06T04:04:01.952Z,85.1
2023-03-06T04:05:01.452Z,85.1
2023-03-06T04:06:01.954Z,85.1
2023-03-06T04:07:01.388Z,85.1
2023-03-06T04:08:01.879Z,85.1
2023-03-06T04:09:01.406Z,85.1
2023-03-06T04:10:01.898Z,85.1
2023-03-06T04:11:02.996Z,85.1
2023-03-06T04:12:03.466Z,85.1
2023-03-06T04:13:02.277Z,85.1
2023-03-06T04:14:03.420Z,85.1
2023-03-06T04:15:04.816Z,85.1
2023-03-06T04:16:01.606Z,85.1
2023-03-06T04:17:02.062Z,85.1
2023-03-06T04:18:01.500Z,85.1
2023-03-06T04:19:01.949Z,85
2023-03-06T04:20:01.473Z,85
2023-03-06T04:21:03.628Z,85
2023-03-06T04:22:01.390Z,85
2023-03-06T04:23:03.587Z,84.9
2023-03-06T04:24:03.004Z,85
2023-03-06T04:25:01.792Z,85
2023-03-06T04:26:03.969Z,85
2023-03-06T04:27:01.799Z,85
2023-03-06T04:28:02.265Z,85
2023-03-06T04:29:01.762Z,85
2023-03-06T04:30:02.212Z,85
2023-03-06T04:31:01.721Z,85
2023-03-06T04:32:02.284Z,85
2023-03-06T04:33:03.328Z,85
2023-03-06T04:34:02.234Z,85
2023-03-06T04:35:01.633Z,84.9
2023-03-06T04:36:02.119Z,84.9
2023-03-06T04:37:01.634Z,84.8
2023-03-06T04:38:02.037Z,84.8
2023-03-06T04:39:01.618Z,84.9
2023-03-06T04:40:03.723Z,84.8
2023-03-06T04:41:01.474Z,84.8
2023-03-06T04:42:01.960Z,84.8
2023-03-06T04:43:03.178Z,84.8
2023-03-06T04:44:01.980Z,84.8
2023-03-06T04:45:01.391Z,84.8
2023-03-06T04:46:01.930Z,84.8
2023-03-06T04:47:01.406Z,84.7
2023-03-06T04:48:01.885Z,84.7
2023-03-06T04:49:01.335Z,84.7
2023-03-06T04:50:03.467Z,84.7
2023-03-06T04:51:02.273Z,84.8
2023-03-06T04:52:03.389Z,84.8
2023-03-06T04:53:02.301Z,84.8
2023-03-06T04:54:01.728Z,84.8
2023-03-06T04:55:02.230Z,84.8
2023-03-06T04:56:03.317Z,84.8
2023-03-06T04:57:02.195Z,84.8
2023-03-06T04:58:01.640Z,84.8
2023-03-06T04:59:02.124Z,84.7
2023-03-06T05:00:01.614Z,84.8
2023-03-06T05:01:03.762Z,84.8
2023-03-06T05:02:01.675Z,84.8
2023-03-06T05:03:03.721Z,84.8
2023-03-06T05:04:01.480Z,84.7
2023-03-06T05:05:03.646Z,84.7
2023-03-06T05:06:01.480Z,84.7
2023-03-06T05:07:01.977Z,84.6
2023-03-06T05:08:01.405Z,84.7
2023-03-06T05:09:01.998Z,84.7
2023-03-06T05:10:01.404Z,84.6
2023-03-06T05:11:01.874Z,84.5
2023-03-06T05:12:03.086Z,84.5
2023-03-06T05:13:02.936Z,84.5
2023-03-06T05:14:01.651Z,84.4
2023-03-06T05:15:02.114Z,84.2
2023-03-06T05:16:01.621Z,84.1
2023-03-06T05:17:03.794Z,84.1
2023-03-06T05:18:01.547Z,84
2023-03-06T05:19:02.063Z,84.1
2023-03-06T05:20:03.230Z,84
2023-03-06T05:21:03.717Z,83.9
2023-03-06T05:22:01.482Z,83.9
2023-03-06T05:23:01.962Z,83.9
2023-03-06T05:24:03.087Z,83.9
2023-03-06T05:25:01.874Z,83.9
2023-03-06T05:26:01.392Z,84
2023-03-06T05:27:03.564Z,84.1
2023-03-06T05:28:01.307Z,84.1
2023-03-06T05:29:01.791Z,84.2
2023-03-06T05:30:02.282Z,84.3
2023-03-06T05:31:03.617Z,84.4
2023-03-06T05:32:02.450Z,84.5
2023-03-06T05:33:01.750Z,84.5
2023-03-06T05:34:02.215Z,84.5
2023-03-06T05:35:03.332Z,84.5
2023-03-06T05:36:02.193Z,84.5
2023-03-06T05:37:01.660Z,84.5
2023-03-06T05:38:03.802Z,84.5
2023-03-06T05:39:01.559Z,84.4
2023-03-06T05:40:02.119Z,84.4
2023-03-06T05:41:01.589Z,84.5
2023-03-06T05:42:02.035Z,84.5
2023-03-06T05:43:01.556Z,84.5
2023-03-06T05:44:03.728Z,84.6
2023-03-06T05:45:03.158Z,84.6
2023-03-06T05:46:02.003Z,84.5
2023-03-06T05:47:01.486Z,84.5
2023-03-06T05:48:01.974Z,84.5
2023-03-06T05:49:01.478Z,84.5
2023-03-06T05:50:01.986Z,84.5
2023-03-06T05:51:01.428Z,84.5
2023-03-06T05:52:01.892Z,84.5
2023-03-06T05:53:03.081Z,84.6
2023-03-06T05:54:01.876Z,84.5
2023-03-06T05:55:03.000Z,84.5
2023-03-06T05:56:01.823Z,84.4
2023-03-06T05:57:03.950Z,84.4
2023-03-06T05:58:01.801Z,84.4
2023-03-06T05:59:02.194Z,84.3
2023-03-06T06:00:01.711Z,84.2
2023-03-06T06:01:02.205Z,84.3
2023-03-06T06:02:01.687Z,84.2
2023-03-06T06:03:02.164Z,84.1
2023-03-06T06:04:01.635Z,84.1
2023-03-06T06:05:03.788Z,84
2023-03-06T06:06:01.656Z,84
2023-03-06T06:07:03.712Z,84
2023-03-06T06:08:01.565Z,84
2023-03-06T06:09:02.044Z,84.1
2023-03-06T06:10:04.015Z,84
2023-03-06T06:11:02.003Z,83.9
2023-03-06T06:12:02.452Z,83.8
2023-03-06T06:13:02.130Z,83.8
2023-03-06T06:14:03.315Z,83.8
2023-03-06T06:15:02.111Z,83.9
2023-03-06T06:16:01.609Z,83.9
2023-03-06T06:17:02.072Z,83.9
2023-03-06T06:18:03.235Z,84
2023-03-06T06:19:02.044Z,83.9
2023-03-06T06:20:01.476Z,83.8
2023-03-06T06:21:01.968Z,83.7
2023-03-06T06:22:03.173Z,83.6
2023-03-06T06:23:01.961Z,83.6
2023-03-06T06:24:01.390Z,83.6
2023-03-06T06:25:03.552Z,83.6
2023-03-06T06:26:01.392Z,83.6
2023-03-06T06:27:03.857Z,83.5
2023-03-06T06:28:01.338Z,83.5
2023-03-06T06:29:03.476Z,83.5
2023-03-06T06:30:03.950Z,83.5
2023-03-06T06:31:01.825Z,83.6
2023-03-06T06:32:02.349Z,83.6
2023-03-06T06:33:01.747Z,83.6
2023-03-06T06:34:02.202Z,83.7
2023-03-06T06:35:01.729Z,83.8
2023-03-06T06:36:02.204Z,84
2023-03-06T06:37:01.644Z,84.1
2023-03-06T06:38:03.818Z,84.1
2023-03-06T06:39:01.566Z,84.2
2023-03-06T06:40:03.831Z,84.2
2023-03-06T06:41:33.457Z,84.2
2023-03-06T06:42:26.148Z,84.3
2023-03-06T06:43:01.495Z,84.3
2023-03-06T06:44:01.963Z,84.3
2023-03-06T06:45:01.512Z,84.4
2023-03-06T06:46:24.561Z,84.5
2023-03-06T06:47:22.320Z,84.5
2023-03-06T06:48:01.945Z,84.6
2023-03-06T06:49:01.427Z,84.6
2023-03-06T06:50:01.901Z,84.6
2023-03-06T06:51:01.324Z,84.6
2023-03-06T06:52:01.793Z,84.6
2023-03-06T06:53:02.274Z,84.6
2023-03-06T06:54:03.469Z,84.6
2023-03-06T06:55:02.290Z,84.5
2023-03-06T06:56:01.712Z,84.5
2023-03-06T06:57:02.191Z,84.5
2023-03-06T06:58:03.393Z,84.5
2023-03-06T06:59:15.748Z,84.5
2023-03-06T07:00:01.663Z,84.3
2023-03-06T07:01:02.116Z,84.2
2023-03-06T07:02:03.311Z,84.1
2023-03-06T07:03:02.115Z,84.1
2023-03-06T07:04:01.611Z,84.1
2023-03-06T07:05:05.332Z,84.1
2023-03-06T07:06:01.548Z,84.1
2023-03-06T07:07:02.028Z,83.9
2023-03-06T07:08:01.476Z,83.7
2023-03-06T07:09:03.633Z,83.6
2023-03-06T07:10:01.484Z,83.5
2023-03-06T07:11:02.038Z,83.5
2023-03-06T07:12:03.144Z,83.4
2023-03-06T07:13:01.972Z,83.4
2023-03-06T07:14:01.476Z,83.4
2023-03-06T07:15:03.565Z,83.5
2023-03-06T07:16:01.436Z,83.5
2023-03-06T07:17:03.575Z,83.5
2023-03-06T07:18:03.019Z,83.5
2023-03-06T07:19:01.795Z,83.5
2023-03-06T07:21:01.793Z,83.4
2023-03-06T07:22:02.276Z,83.3
2023-03-06T07:23:01.731Z,83.3
2023-03-06T07:24:03.909Z,83.5
2023-03-06T07:25:01.718Z,83.6
2023-03-06T07:26:02.192Z,83.7
2023-03-06T07:27:01.635Z,83.8
2023-03-06T07:28:02.198Z,83.8
2023-03-06T07:29:01.638Z,83.7
2023-03-06T07:30:02.117Z,83.6
2023-03-06T07:31:01.812Z,83.4
2023-03-06T07:32:02.286Z,83.3
2023-03-06T07:33:01.555Z,83.2
2023-03-06T07:34:04.785Z,83.2
2023-03-06T07:35:19.032Z,83.1
2023-03-06T07:36:02.094Z,82.9
2023-03-06T07:37:01.473Z,82.8
2023-03-06T07:38:01.953Z,82.6
2023-03-06T07:39:01.403Z,82.8
2023-03-06T07:40:01.894Z,82.6
2023-03-06T07:41:01.401Z,82.5
2023-03-06T07:42:01.879Z,82.5
2023-03-06T07:43:13.211Z,82.6
2023-03-06T07:44:01.890Z,82.7
2023-03-06T07:46:03.508Z,82.2
2023-03-06T07:47:02.273Z,82.1
2023-03-06T07:48:05.576Z,82.2
2023-03-06T07:49:02.270Z,82.1
2023-03-06T07:50:01.721Z,82.1
2023-03-06T07:51:02.212Z,81.9
2023-03-06T07:52:01.750Z,82
2023-03-06T07:53:02.216Z,82.2
2023-03-06T07:54:01.649Z,82.1
2023-03-06T07:55:02.140Z,82
2023-03-06T07:56:01.578Z,82
2023-03-06T07:57:03.718Z,82
2023-03-06T07:58:01.586Z,81.6
2023-03-06T07:59:02.062Z,81.7
2023-03-06T08:00:01.500Z,81.7
2023-03-06T08:01:01.959Z,81.4
2023-03-06T08:02:01.491Z,80.9
2023-03-06T08:03:03.791Z,80.9
2023-03-06T08:04:03.144Z,80.9
2023-03-06T08:05:01.893Z,81
2023-03-06T08:06:01.409Z,81.3
2023-03-06T08:07:01.886Z,81.5
2023-03-06T08:08:01.330Z,81.5
2023-03-06T08:09:03.507Z,81.2
2023-03-06T08:10:02.295Z,81.5
2023-03-06T08:11:01.735Z,81.1
2023-03-06T08:12:02.220Z,81.2
2023-03-06T08:13:01.734Z,81.5
2023-03-06T08:14:02.211Z,81.4
2023-03-06T08:15:01.684Z,81.4
2023-03-06T08:16:03.860Z,81.1
2023-03-06T08:17:01.655Z,80.8
2023-03-06T08:18:03.734Z,81
2023-03-06T08:19:01.567Z,80.6
2023-03-06T08:20:02.061Z,80.3
2023-03-06T08:21:01.551Z,80.8
2023-03-06T08:22:02.057Z,81.2
2023-03-06T08:23:03.158Z,81
2023-03-06T08:24:01.951Z,80.8
2023-03-06T08:25:01.517Z,80.6
2023-03-06T08:26:01.960Z,81
2023-03-06T08:27:01.412Z,81.2
2023-03-06T08:28:01.894Z,81.1
2023-03-06T08:29:01.416Z,81.1
2023-03-06T08:30:03.556Z,80.7
2023-03-06T08:31:02.999Z,81.2
2023-03-06T08:32:01.848Z,81
2023-03-06T08:34:01.807Z,80.8
2023-03-06T08:35:02.279Z,80.9
2023-03-06T08:36:02.469Z,80.4
2023-03-06T08:37:02.296Z,80.8
2023-03-06T08:38:01.719Z,80.6
2023-03-06T08:39:03.886Z,81.2
2023-03-06T08:40:03.331Z,81.3
2023-03-06T08:41:02.153Z,81.4
2023-03-06T08:42:01.650Z,80.4
2023-03-06T08:43:02.135Z,80.6
2023-03-06T08:44:01.682Z,81
2023-03-06T08:45:02.136Z,80.5
2023-03-06T08:46:01.612Z,80.6
2023-03-06T08:47:02.041Z,80.9
2023-03-06T08:48:01.574Z,80.5
2023-03-06T08:49:02.069Z,80.5
2023-03-06T08:50:01.518Z,80.2
2023-03-06T08:51:01.984Z,80.2
2023-03-06T08:52:03.162Z,81
2023-03-06T08:53:01.961Z,80.3
2023-03-06T08:54:01.437Z,80.3
2023-03-06T08:55:03.680Z,80.4
2023-03-06T08:56:03.132Z,80.1
2023-03-06T08:57:01.918Z,80.4
2023-03-06T08:58:01.321Z,80.2
2023-03-06T08:59:01.809Z,80
2023-03-06T09:00:03.965Z,79.8
2023-03-06T09:01:01.925Z,79.9
2023-03-06T09:02:02.291Z,80.2
2023-03-06T09:03:03.394Z,80.6
2023-03-06T09:04:02.207Z,80.6
2023-03-06T09:05:01.641Z,80.9
2023-03-06T09:06:03.796Z,80.2
2023-03-06T09:07:01.649Z,80.1
2023-03-06T09:08:02.149Z,80.2
2023-03-06T09:09:01.642Z,79.9
2023-03-06T09:10:02.111Z,79.5
2023-03-06T09:11:01.561Z,80.2
2023-03-06T09:12:02.034Z,80.3
2023-03-06T09:13:01.502Z,80
2023-03-06T09:14:01.969Z,79.6
2023-03-06T09:15:03.146Z,79.7
2023-03-06T09:16:01.958Z,80
2023-03-06T09:17:01.404Z,79.6
2023-03-06T09:18:01.944Z,79.7
2023-03-06T09:19:01.414Z,80.3
2023-03-06T09:20:01.865Z,80.1
2023-03-06T09:21:02.989Z,78.8
2023-03-06T09:22:01.792Z,78.6
2023-03-06T09:23:03.959Z,78.6
2023-03-06T09:24:01.807Z,79.1
2023-03-06T09:25:02.275Z,79.6
2023-03-06T09:26:01.735Z,79.6
2023-03-06T09:27:02.188Z,78.5
2023-03-06T09:28:10.560Z,78
2023-03-06T09:29:02.240Z,78
2023-03-06T09:30:03.302Z,78.9
2023-03-06T09:31:02.170Z,78.8
2023-03-06T09:32:03.344Z,78.4
2023-03-06T09:33:02.110Z,78.7
2023-03-06T09:34:01.567Z,78.8
2023-03-06T09:35:02.044Z,78.8
2023-03-06T09:36:01.550Z,78.8
2023-03-06T09:37:03.778Z,78.3
2023-03-06T09:38:01.492Z,78.8
2023-03-06T09:39:01.957Z,78.3
2023-03-06T09:40:01.510Z,78.4
2023-03-06T09:41:01.976Z,78
2023-03-06T09:42:03.405Z,78.3
2023-03-06T09:43:03.642Z,78.5
2023-03-06T09:44:01.491Z,78.3
2023-03-06T09:45:01.951Z,78.1
2023-03-06T09:46:01.478Z,78
2023-03-06T09:47:01.881Z,78.2
2023-03-06T09:48:03.113Z,78.3
2023-03-06T09:49:01.887Z,78.4
2023-03-06T09:50:01.314Z,77.9
2023-03-06T09:51:01.801Z,78
2023-03-06T09:52:02.276Z,77.3
2023-03-06T09:53:03.494Z,76.5
2023-03-06T09:54:02.305Z,77
2023-03-06T09:55:01.743Z,76.9
2023-03-06T09:56:02.233Z,76.7
2023-03-06T09:57:01.748Z,77.3
2023-03-06T09:58:02.238Z,77.5
2023-03-06T09:59:03.424Z,77.7
2023-03-06T10:00:04.452Z,78
2023-03-06T10:01:03.313Z,77.4
2023-03-06T10:02:02.193Z,77.9
2023-03-06T10:03:01.761Z,78
2023-03-06T10:04:02.035Z,77.4
2023-03-06T10:05:01.644Z,77.2
2023-03-06T10:06:03.714Z,77.8
2023-03-06T10:07:04.088Z,78.3
2023-03-06T10:08:01.820Z,77.8
2023-03-06T10:09:02.280Z,77.5
2023-03-06T10:10:03.497Z,76.6
2023-03-06T10:11:02.271Z,76.4
2023-03-06T10:12:01.721Z,75.9
2023-03-06T10:13:02.234Z,76.2
2023-03-06T10:14:01.739Z,76.9
2023-03-06T10:15:02.218Z,76.1
2023-03-06T10:16:01.699Z,76.5
2023-03-06T10:17:02.114Z,77.2
2023-03-06T10:18:03.350Z,76.9
2023-03-06T10:19:03.797Z,76.6
2023-03-06T10:20:01.565Z,76.5
2023-03-06T10:21:13.589Z,76.8
2023-03-06T10:22:01.470Z,76.9
2023-03-06T10:23:05.118Z,76.6
2023-03-06T10:24:01.535Z,76.7
2023-03-06T10:25:01.954Z,76.8
2023-03-06T10:26:01.563Z,76.7
2023-03-06T10:27:02.013Z,76.5
2023-03-06T10:28:01.395Z,76.3
2023-03-06T10:29:01.900Z,76.4
2023-03-06T10:30:03.968Z,77.3
2023-03-06T10:31:01.964Z,77.8
2023-03-06T10:32:03.013Z,78.1
2023-03-06T10:33:03.569Z,77.8
2023-03-06T10:34:02.283Z,78.3
2023-03-06T10:35:01.819Z,78.4
2023-03-06T10:36:02.353Z,78.4
2023-03-06T10:37:01.760Z,78.7
2023-03-06T10:38:02.187Z,78.8
2023-03-06T10:39:01.749Z,79
2023-03-06T10:40:03.927Z,78.3
2023-03-06T10:41:01.633Z,78.6
2023-03-06T10:42:02.122Z,78.8
2023-03-06T10:43:10.912Z,78.8
2023-03-06T10:44:02.122Z,78.4
2023-03-06T10:45:01.568Z,78.2
2023-03-06T10:46:02.158Z,77.9
2023-03-06T10:47:01.563Z,78.8
2023-03-06T10:48:02.029Z,78.7
2023-03-06T10:49:01.583Z,78.4
2023-03-06T10:50:03.657Z,78.2
2023-03-06T10:51:09.798Z,77.7
2023-03-06T10:52:01.950Z,77.8
2023-03-06T10:53:01.481Z,77.1
2023-03-06T10:54:03.673Z,77.4
2023-03-06T10:55:01.424Z,77.5
2023-03-06T10:56:01.914Z,77.9
2023-03-06T10:57:01.438Z,78.4
2023-03-06T10:58:01.900Z,79
2023-03-06T10:59:03.013Z,78.7
2023-03-06T11:00:01.806Z,79.5
2023-03-06T11:01:03.964Z,78
2023-03-06T11:02:01.933Z,77.4
2023-03-06T11:03:02.296Z,78.2
2023-03-06T11:04:01.722Z,79
2023-03-06T11:05:02.362Z,78.7
2023-03-06T11:06:01.730Z,78.6
2023-03-06T11:07:02.206Z,78.3
2023-03-06T11:08:01.689Z,78
2023-03-06T11:09:02.122Z,78.6
2023-03-06T11:10:03.247Z,77.9
2023-03-06T11:11:02.123Z,77.5
2023-03-06T11:12:01.564Z,78.3
2023-03-06T11:13:02.063Z,79.3
2023-03-06T11:14:01.486Z,79.3
2023-03-06T11:15:02.145Z,79.7
2023-03-06T11:16:01.535Z,80.3
2023-03-06T11:17:03.644Z,80.6
2023-03-06T11:18:01.501Z,80.8
2023-03-06T11:19:01.974Z,81.1
2023-03-06T11:20:01.404Z,80.8
2023-03-06T11:21:01.875Z,80.6
2023-03-06T11:22:03.075Z,80.9
2023-03-06T11:23:01.806Z,81.6
2023-03-06T11:24:02.325Z,81.9
2023-03-06T11:25:03.477Z,82.7
2023-03-06T11:26:02.297Z,82.2
2023-03-06T11:27:03.397Z,82.5
2023-03-06T11:28:02.199Z,81.4
2023-03-06T11:29:01.766Z,81.4
2023-03-06T11:30:03.866Z,81.1
2023-03-06T11:31:03.399Z,80.6
2023-03-06T11:32:02.157Z,80.6
2023-03-06T11:33:01.575Z,81.3
2023-03-06T11:34:03.722Z,81.2
2023-03-06T11:35:01.690Z,81
2023-03-06T11:36:02.052Z,80.3
2023-03-06T11:37:01.478Z,80.3
2023-03-06T11:38:03.642Z,80.1
2023-03-06T11:39:03.146Z,80.9
2023-03-06T11:40:01.964Z,81.7
2023-03-06T11:41:01.391Z,82
2023-03-06T11:42:01.874Z,81.8
2023-03-06T11:43:01.399Z,81.5
2023-03-06T11:44:01.899Z,81.7
2023-03-06T11:45:02.842Z,81.5
2023-03-06T11:46:01.885Z,80.7
2023-03-06T11:48:01.816Z,79.7
2023-03-06T11:49:02.288Z,79.2
2023-03-06T11:50:03.460Z,80
2023-03-06T11:51:02.282Z,80.8
2023-03-06T11:52:01.754Z,80.8
2023-03-06T11:53:02.189Z,80.9
2023-03-06T11:54:01.729Z,80.2
2023-03-06T11:55:02.310Z,78.9
2023-03-06T11:56:01.639Z,79.3
2023-03-06T11:57:02.176Z,79.4
2023-03-06T11:58:01.552Z,78.4
2023-03-06T11:59:02.045Z,77.7
2023-03-06T12:00:01.561Z,79.4
2023-03-06T12:01:02.037Z,79.9
2023-03-06T12:02:03.200Z,78.4
2023-03-06T12:03:01.955Z,77.9
2023-03-06T12:04:01.477Z,78.2
2023-03-06T12:05:03.629Z,77.5
2023-03-06T12:06:01.460Z,77.3
2023-03-06T12:07:04.625Z,79.1
2023-03-06T12:08:01.335Z,79.7
2023-03-06T12:09:01.901Z,78.5
2023-03-06T12:11:01.826Z,79.6
2023-03-06T12:12:02.278Z,79.3
2023-03-06T12:13:01.723Z,79.4
2023-03-06T12:14:04.319Z,78.6
2023-03-06T12:15:01.818Z,78.6
2023-03-06T12:16:03.940Z,78.5
2023-03-06T12:17:03.390Z,78.6
2023-03-06T12:18:02.226Z,78
2023-03-06T12:19:01.655Z,78.2
2023-03-06T12:20:03.812Z,79.3
2023-03-06T12:21:01.552Z,79.1
2023-03-06T12:22:02.053Z,79.1
2023-03-06T12:23:14.938Z,79.7
2023-03-06T12:24:02.038Z,79.3
2023-03-06T12:25:01.824Z,78.3
2023-03-06T12:26:02.104Z,79.1
2023-03-06T12:27:01.539Z,78.8
2023-03-06T12:28:03.630Z,79
2023-03-06T12:29:01.493Z,79.4
2023-03-06T12:30:01.971Z,79.2
2023-03-06T12:31:01.393Z,78
2023-03-06T12:32:01.999Z,77.5
2023-03-06T12:33:01.314Z,77.1
2023-03-06T12:34:01.922Z,77.4
2023-03-06T12:35:04.724Z,76.6
2023-03-06T12:36:03.462Z,75.9
2023-03-06T12:37:02.316Z,76.6
2023-03-06T12:38:01.795Z,76.9
2023-03-06T12:39:02.306Z,76.7
2023-03-06T12:40:01.716Z,75.7
2023-03-06T12:41:02.200Z,75.6
2023-03-06T12:42:04.867Z,76
2023-03-06T12:43:02.215Z,75.4
2023-03-06T12:44:01.648Z,76
2023-03-06T12:45:02.125Z,75.7
2023-03-06T12:46:01.664Z,74
2023-03-06T12:47:02.116Z,73.8
2023-03-06T12:48:01.550Z,73.1
2023-03-06T12:49:02.025Z,72.7
2023-03-06T12:50:01.585Z,73.4
2023-03-06T12:51:02.037Z,74
2023-03-06T12:52:03.153Z,73.7
2023-03-06T12:53:01.967Z,73.5
2023-03-06T12:54:01.408Z,73.9
2023-03-06T12:55:01.901Z,73.7
2023-03-06T12:56:01.328Z,73.2
2023-03-06T12:57:03.551Z,72.8
2023-03-06T12:59:01.795Z,72.5
2023-03-06T13:00:02.288Z,73.5
2023-03-06T13:01:04.730Z,72.8
2023-03-06T13:02:04.017Z,72.7
2023-03-06T13:03:01.746Z,73.1
2023-03-06T13:04:02.212Z,73.2
2023-03-06T13:05:02.714Z,72.9
2023-03-06T13:06:01.321Z,73.5
2023-03-06T13:07:03.503Z,73.7
2023-03-06T13:08:02.280Z,73.6
2023-03-06T13:09:01.795Z,72.4
2023-03-06T13:10:03.892Z,72.6
2023-03-06T13:11:01.731Z,73.2
2023-03-06T13:12:03.902Z,73.4
2023-03-06T13:13:01.752Z,73.7
2023-03-06T13:14:02.215Z,73.1
2023-03-06T13:15:01.640Z,73
2023-03-06T13:16:02.121Z,72.9
2023-03-06T13:17:01.648Z,72.9
2023-03-06T13:18:02.151Z,73.1
2023-03-06T13:19:01.571Z,73.5
2023-03-06T13:20:02.043Z,73.5
2023-03-06T13:21:03.149Z,73.8
2023-03-06T13:22:01.957Z,74.6
2023-03-06T13:23:01.500Z,75.4
2023-03-06T13:24:01.980Z,75.7
2023-03-06T13:25:08.169Z,76.3
2023-03-06T13:26:03.589Z,76.5
2023-03-06T13:27:01.406Z,77
2023-03-06T13:28:01.867Z,77
2023-03-06T13:29:01.347Z,77.6
2023-03-06T13:30:01.860Z,77.5
2023-03-06T13:31:02.343Z,77.2
2023-03-06T13:32:01.857Z,76.9
2023-03-06T13:33:02.273Z,76.6
2023-03-06T13:34:01.701Z,77.1
2023-03-06T13:35:03.890Z,77